Axtell, NE

12:32 PM CDT on October 30, 2014 (GMT -0500)
Brewster | Change Station
CLOSE
Current Station
Airport
Location: Holdrege,
Elevation: 2310 ft
Nearby Weather Stations

Elev 2310 ft 40.45 °N, 99.34 °W | Updated 17 minutes ago

Clear
Clear
61 °F
Feels Like 61 °F
N
20
Wind Variable Wind from NNW
Gusts 26 mph

Today
High -- | Low -- °F
--% Chance of Precip.
Yesterday
High -- | Low -- °F
Precip. -- in
8:04 AM 6:35 PM
Waxing Crescent, 46% visible
Pressure 30.21 in
Visibility 10.0 miles
Clouds Clear
Dew Point 32 °F
Humidity 34%
Rainfall 0.00 in
Snow Depth Not available.
UV 4 out of 12
Pollen 2.10 out of 12
Air Quality Not available.
Flu Activity Not available.
METAR KHDE 301715Z AUTO 34017G23KT 10SM CLR 16/00 A3021 RMK AO2 T01590001

More Conditions Fewer Conditions

Pressure 30.21 in
Visibility 10.0 miles
Clouds Clear
Dew Point 32 °F
Humidity 34%
Rainfall 0.00 in
Snow Depth Not available.
UV 4 out of 12
Pollen 2.10 out of 12
Air Quality Not available.
Flu Activity Not available.
METAR KHDE 301715Z AUTO 34017G23KT 10SM CLR 16/00 A3021 RMK AO2 T01590001

More Conditions Fewer Conditions

10-Day Weather Forecast

Almanac

Astronomy

Oct. 30, 2014 Rise Set
Actual Time
Civil Twilight
Nautical Twilight
Astronomical Twilight
Moon
Length of Visible Light
Length of Day
Tomorrow will be .
, % of the Moon is Illuminated

Today's Extremes

State Highs State Lows

Community

WunderPhotos

Upload Photos

1,766,409 photos uploaded!

WunderBlogs® & News

Nearby

Air Quality

  Air Quality AQ Index Pollutant
Not available.

Snow Depth

Station Depth Elevation

Earthquake Activity

City Distance Mag. Time & Date
Minimum magnitude displayed is 2.5.

Coastal Water Temperatures

Place Temperature

Nearby Weather Stations